Time;durP1;ratioP1;P1;durP2;ratioP2;P2;SDS_P1;SDS_P2;PMS_P1;PMS_P2;Temp;Humidity;BMP_temperature;BMP_pressure;BME280_temperature;BME280_humidity;BME280_pressure;Samples;Min_cycle;Max_cycle;Signal;HPM_P1;HPM_P2
2023/10/09 05:47:34;;;;;;;11.82;7.13;;;;;;;;;;10583131;27;20413;-88
2023/10/09 06:13:46;;;;;;;9.63;6.60;;;;;;;;;;10403511;28;20044;-84
2023/10/09 06:19:07;;;;;;;10.40;7.13;;;;;;;;;;10418347;28;20026;-86
2023/10/09 06:29:35;;;;;;;13.98;9.77;;;;;;;;;;10383051;28;20030;-87
2023/10/09 06:34:44;;;;;;;10.82;7.22;;;;;;;;;;10376220;28;20112;-83
2023/10/09 06:44:58;;;;;;;13.20;7.78;;;;;;;;;;10375356;28;20038;-85
2023/10/09 06:50:24;;;;;;;11.25;7.15;;;;;;;;;;10376912;28;20057;-85
2023/10/09 06:55:37;;;;;;;10.55;7.05;;;;;;;;;;10368611;28;20030;-84
2023/10/09 07:16:57;;;;;;;8.90;5.85;;;;;;;;;;10350905;28;20038;-82
2023/10/09 07:22:02;;;;;;;8.10;5.03;;;;;;;;;;10351017;28;20146;-80
2023/10/09 07:27:09;;;;;;;9.60;6.28;;;;;;;;;;10348083;28;20490;-81
2023/10/09 07:32:19;;;;;;;8.93;6.40;;;;;;;;;;10348923;28;20018;-81
2023/10/09 07:37:24;;;;;;;11.20;6.88;;;;;;;;;;10352473;28;20030;-84
2023/10/09 07:53:14;;;;;;;10.75;6.78;;;;;;;;;;10353397;28;20033;-81
2023/10/09 07:58:16;;;;;;;9.73;6.05;;;;;;;;;;10352765;28;20037;-81
2023/10/09 08:03:23;;;;;;;9.98;7.13;;;;;;;;;;10353094;28;20030;-81
2023/10/09 08:13:56;;;;;;;11.32;7.68;;;;;;;;;;10351431;28;20034;-81
2023/10/09 08:18:57;;;;;;;9.02;7.40;;;;;;;;;;10353650;28;20018;-80
2023/10/09 08:24:04;;;;;;;12.98;7.57;;;;;;;;;;10357367;28;20026;-77
2023/10/09 08:29:19;;;;;;;11.48;7.30;;;;;;;;;;10372534;28;20027;-80
2023/10/09 08:34:24;;;;;;;10.27;7.00;;;;;;;;;;10347816;28;20018;-80
2023/10/09 08:39:26;;;;;;;11.05;7.13;;;;;;;;;;10349841;28;20023;-80
2023/10/09 08:44:31;;;;;;;10.25;7.28;;;;;;;;;;10344082;28;20046;-78
2023/10/09 08:49:37;;;;;;;13.63;7.35;;;;;;;;;;10342252;28;20022;-76
2023/10/09 08:54:38;;;;;;;10.68;6.63;;;;;;;;;;10336478;28;20061;-76
2023/10/09 08:59:42;;;;;;;12.90;8.80;;;;;;;;;;10336524;28;20027;-79
2023/10/09 09:04:45;;;;;;;12.20;7.70;;;;;;;;;;10345851;28;20109;-80
2023/10/09 09:09:57;;;;;;;11.20;7.30;;;;;;;;;;10337208;28;20023;-77
2023/10/09 09:14:58;;;;;;;10.90;7.15;;;;;;;;;;10339506;28;20101;-77
2023/10/09 09:19:59;;;;;;;10.82;7.30;;;;;;;;;;10333480;28;20022;-76
2023/10/09 09:25:03;;;;;;;12.75;7.47;;;;;;;;;;10335118;28;20027;-80
2023/10/09 09:30:23;;;;;;;11.57;7.75;;;;;;;;;;10344386;28;20038;-81
2023/10/09 09:35:27;;;;;;;15.95;10.77;;;;;;;;;;10343655;28;20497;-83
2023/10/09 09:40:41;;;;;;;12.55;9.20;;;;;;;;;;10340062;28;20062;-84
2023/10/09 09:45:47;;;;;;;12.05;8.93;;;;;;;;;;10341804;28;20077;-83
2023/10/09 09:50:54;;;;;;;14.43;8.80;;;;;;;;;;10339243;28;20033;-84
2023/10/09 09:55:57;;;;;;;13.95;9.68;;;;;;;;;;10339890;28;20050;-87
2023/10/09 10:01:04;;;;;;;13.65;9.85;;;;;;;;;;10342514;28;20038;-85
2023/10/09 10:06:12;;;;;;;15.88;11.95;;;;;;;;;;10341637;28;20018;-83
2023/10/09 10:11:52;;;;;;;12.70;9.32;;;;;;;;;;10323502;28;20050;-83
2023/10/09 10:22:47;;;;;;;19.70;13.57;;;;;;;;;;10377008;28;20039;-84
2023/10/09 10:33:54;;;;;;;16.75;11.27;;;;;;;;;;10360947;28;20042;-84
2023/10/09 10:44:37;;;;;;;13.50;10.30;;;;;;;;;;10354000;28;20058;-85
2023/10/09 10:49:44;;;;;;;12.85;9.07;;;;;;;;;;10353159;28;20454;-86
2023/10/09 10:54:47;;;;;;;14.43;9.27;;;;;;;;;;10350183;28;20028;-87
2023/10/09 11:00:02;;;;;;;15.00;10.55;;;;;;;;;;10348483;28;20102;-84
2023/10/09 11:05:38;;;;;;;16.48;11.15;;;;;;;;;;10344434;28;20065;-85
2023/10/09 11:10:49;;;;;;;11.35;7.38;;;;;;;;;;10345968;28;20027;-83
2023/10/09 11:16:14;;;;;;;12.05;8.45;;;;;;;;;;10352288;28;20165;-84
2023/10/09 11:26:40;;;;;;;11.50;6.90;;;;;;;;;;10353263;28;20069;-83
2023/10/09 11:31:45;;;;;;;14.20;9.90;;;;;;;;;;10347654;28;20037;-83
2023/10/09 11:42:48;;;;;;;14.65;10.57;;;;;;;;;;10360568;28;20524;-87
2023/10/09 11:48:46;;;;;;;13.55;9.38;;;;;;;;;;10353736;28;20053;-87
2023/10/09 11:53:54;;;;;;;12.50;8.38;;;;;;;;;;10357101;28;20034;-85
2023/10/09 12:10:48;;;;;;;12.32;8.80;;;;;;;;;;10401463;28;20026;-86
2023/10/09 12:15:51;;;;;;;13.48;8.15;;;;;;;;;;10414442;28;20048;-87
2023/10/09 16:25:49;;;;;;;13.18;10.13;;;;;;;;;;10465989;28;20040;-84
2023/10/09 16:30:50;;;;;;;12.55;8.48;;;;;;;;;;10449132;28;20106;-80
2023/10/09 16:35:54;;;;;;;19.60;13.65;;;;;;;;;;10448209;28;20158;-84
2023/10/09 16:40:56;;;;;;;19.10;14.32;;;;;;;;;;10449616;28;20033;-84
2023/10/09 16:45:57;;;;;;;17.25;13.55;;;;;;;;;;10452143;28;20400;-85
2023/10/09 16:50:58;;;;;;;17.75;12.30;;;;;;;;;;10449465;28;20112;-84
2023/10/09 16:56:04;;;;;;;18.63;12.48;;;;;;;;;;10453208;28;20025;-86
2023/10/09 17:01:10;;;;;;;18.02;12.27;;;;;;;;;;10447810;28;20462;-84
2023/10/09 17:06:11;;;;;;;23.63;17.15;;;;;;;;;;10445541;28;20029;-84
2023/10/09 17:11:12;;;;;;;14.68;10.10;;;;;;;;;;10454364;28;20021;-84
2023/10/09 17:16:28;;;;;;;16.15;12.63;;;;;;;;;;10466816;28;20029;-85
2023/10/09 17:21:35;;;;;;;16.60;10.63;;;;;;;;;;10464667;28;20070;-85
2023/10/09 17:26:45;;;;;;;15.38;10.88;;;;;;;;;;10452419;28;20029;-85
2023/10/09 17:32:02;;;;;;;14.63;10.63;;;;;;;;;;10467155;28;20025;-85
2023/10/09 17:37:04;;;;;;;14.80;10.60;;;;;;;;;;10447612;28;20427;-86
2023/10/09 17:42:09;;;;;;;15.57;10.70;;;;;;;;;;10446046;28;20115;-85
2023/10/09 17:47:11;;;;;;;21.05;13.82;;;;;;;;;;10430062;28;20037;-85
2023/10/09 17:52:12;;;;;;;18.25;14.23;;;;;;;;;;10451759;28;20035;-85
2023/10/09 17:57:13;;;;;;;18.95;12.77;;;;;;;;;;10474093;22;21389;-82
2023/10/09 18:02:15;;;;;;;15.88;11.07;;;;;;;;;;10545497;28;20107;-83
2023/10/09 18:07:18;;;;;;;13.07;10.35;;;;;;;;;;10562686;28;20028;-83
2023/10/09 18:12:21;;;;;;;18.85;13.57;;;;;;;;;;10560478;28;20023;-83
2023/10/09 18:17:26;;;;;;;18.88;14.23;;;;;;;;;;10558977;28;20028;-83
2023/10/09 18:22:29;;;;;;;20.73;14.02;;;;;;;;;;10558279;28;20024;-83
2023/10/09 18:27:30;;;;;;;20.17;12.70;;;;;;;;;;10559207;28;20395;-83
2023/10/09 18:32:31;;;;;;;16.60;10.80;;;;;;;;;;10560386;28;20024;-84
2023/10/09 18:37:32;;;;;;;15.90;11.77;;;;;;;;;;10557488;28;20030;-84
2023/10/09 18:42:33;;;;;;;14.50;10.95;;;;;;;;;;10557244;28;20118;-83
2023/10/09 18:47:40;;;;;;;19.67;12.75;;;;;;;;;;10561804;28;20035;-83
2023/10/09 18:52:42;;;;;;;17.05;11.07;;;;;;;;;;10566701;28;20075;-83
2023/10/09 18:57:43;;;;;;;14.05;10.60;;;;;;;;;;10568970;28;20035;-82
2023/10/09 19:02:44;;;;;;;13.00;9.32;;;;;;;;;;10570812;28;20490;-83
2023/10/09 19:07:46;;;;;;;12.50;8.40;;;;;;;;;;10553078;28;20016;-83
